SIE weather

CLOSED Sines Airport
Setúbal District, Portugal

Public forecast

Using degrees Celsius for public forecast. Weather courtesy of forecast.io.

Closest aviation weather report (METAR) to Sines Airport

Closest report is Beja Airport / Airbase, 42.7 nm (79.0 km) ENE. Retrieved 2020/08/04 16:00 UTC (29 minutes ago):

LPBJ 041600Z VRB04KT 9999 FEW040 36/11 Q1011

Closest aviation forecast (TAF) to Sines Airport

Closest forecast is Beja Airport / Airbase, 42.7 nm (79.0 km) ENE. Retrieved 2020/08/04 12:18 UTC (4 hours ago):

TAF LPBJ 041106Z 0412/0512 34005KT CAVOK BECMG 0417/0419 33010KT BECMG 0422/0424 VRB02KT